Markleysburg, Pennsylvania
Current Conditions -  °F | °C
As of 4:00 PM on Sunday 23 Nov 2014 (Local Time) from K2G4 Reporting Station
Clear Clear  
Wind Chill: 52°   Ceiling: Unl
Heat Index: 52°   Visibility: 10mi
Dew Point: 34°   Wind: 16mph
Humidity: 50%   Direction: 150°SSE
Pressure: 29.93"   Gusts: 31mph
Location:  39.73°N, 79.45°W
Report Text: K2G4 232100Z AUTO 15014G27KT 10SM CLR 11/01 A2993 RMK AO1
Loading
Personal Weather Stations






























Interactive Weather Map New forecast layout! Learn more

10-Day Weather Forecast

Advertisements
Track Severe Weather on mobile